Архив погоды в Купино

Метеограмма Купино
Вторник, 14 Августа
Время местн. Темп Ветер Видим Явления Облачность нижн/средн/верх Атм. давл. Влжн Точка росы ВНГО R Сост. почвы Tg s
Напр Скр Прв ур.ст ур.м изм
19:00 +21.9° Ю-В 2 - 20 км - переменная облачность 755 765 -0.4 44% +9° 1 км 0 - - -
16:00 +21.5° В,Ю-В 2 - 20 км - переменная облачность 755 765 -0.4 45% +9° 1 км - - - -
13:00 +20° Ю 3 - 20 км - переменная облачность 756 766 -0.2 49% +9° более 2.5 км - - - -
10:00 +14.6° Ю 2 - 20 км - облачно 756 766 +0.8 78% +10.8° 1 км - - - -
07:00 +9° Ю 2 - 20 км - переменная облачность 755 766 +0.8 95% +8.2° 1 км 0 Влажная (без луж) +7° -
04:00 +8.2° Ю 1 - 20 км - ясно 754 765 +0.4 94% +7.3° более 2.5 км - - - -
01:00 +10.1° Ю 1 - 20 км - ясно 754 764 +0.8 94% +9.2° более 2.5 км - - - -
Понедельник, 13 Августа
Время местн. Темп Ветер Видим Явления Облачность нижн/средн/верх Атм. давл. Влжн Точка росы ВНГО R Сост. почвы Tg s
Напр Скр Прв ур.ст ур.м изм
22:00 +12.1° Ю-В 1 - 20 км - переменная облачность 753 764 +1 86% +9.9° более 2.5 км - - - -
19:00 +18.6° С 3 - 20 км - облачно с прояснениями 752 762 +0.7 50% +8° 1.5 км 0 - - -
16:00 +17.9° С 3 - 20 км - облачно 752 762 +1.2 56% +8.9° 1 км - - - -
13:00 +16.8° С 4 - 20 км - облачно 750 761 +1.1 64% +10° 1 км - - - -
10:00 +13.3° С 4 - 20 км - облачно 749 760 +2 88% +11.3° 1 км - - - -
07:00 +12.3° С 5 - 20 км ливневый дождь облачно 747 757 +1.7 93% +11.2° 1 км 8 Влажная (без луж) +12° -
04:00 +12.2° С 1 - 20 км ливневый дождь облачно 745 756 +1.4 96% +11.6° 1 км - - - -
01:00 +11.9° В,С-В 1 - 20 км ливневый дождь облачно 744 754 +1.8 96% +11.3° 1 км - - - -
Воскресенье, 12 Августа
Время местн. Темп Ветер Видим Явления Облачность нижн/средн/верх Атм. давл. Влжн Точка росы ВНГО R Сост. почвы Tg s
Напр Скр Прв ур.ст ур.м изм
22:00 +12.3° С-В 4 11 20 км небо без изменений {ливневые осадки} облачно 742 752 +2.3 94% +11.3° 600 м - - - -
19:00 +13.5° З,Ю-З 4 - 10 км слабый ливневый дождь облачно 740 750 +1.2 94% +12.6° 600 м 11 - - -
16:00 +11.7° З 5 10 4 км слабый ливневый дождь облачно 739 749 +1.5 95% +11° 600 м - - - -
13:00 +12.5° З,Ю-З 6 10 20 км небо без изменений {ливневые осадки} облачно 737 747 +1.1 85% +10° 600 м - - - -
10:00 +12.9° Ю-З 6 - 20 км ливневый дождь облачно 736 746 -0.8 90% +11.3° 600 м - - - -
07:00 +13.9° З 5 - 10 км небо без изменений {ливневые осадки} облачно 735 746 -0.8 94% +13° 1 км 0.6 Влажная (без луж) +13° -
04:00 +13.5° Ю 2 - 20 км - облачно с прояснениями 736 746 -1.4 92% +12.3° 1 км - - - -
01:00 +13.9° Ю 3 - 20 км - облачно с прояснениями 738 748 -0.9 85% +11.4° 1 км - - - -
Суббота, 11 Августа
Время местн. Темп Ветер Видим Явления Облачность нижн/средн/верх Атм. давл. Влжн Точка росы ВНГО R Сост. почвы Tg s
Напр Скр Прв ур.ст ур.м изм
22:00 +14.4° Ю,Ю-З 3 - 20 км - облачно с прояснениями 738 748 0 84% +11.8° 1 км - - - -
19:00 +19.4° З 5 11 10 км небо без изменений {гроза, ливневые осадки} преимущественно облачно 738 748 -0.2 59% +11.3° 1 км 8 - - -
16:00 +17.4° Ю-З 4 15 10 км гроза без осадков {ливневые осадки} облачно с прояснениями 738 748 -0.1 85% +14.8° 1 км - - - -